createdAt,value
2024-03-05T00:09:28.952Z,34.70
2024-03-05T00:19:29.577Z,30.70
2024-03-05T00:29:30.090Z,27.40
2024-03-05T00:39:30.717Z,28.60
2024-03-05T00:49:31.331Z,30.70
2024-03-05T00:59:31.887Z,29.00
2024-03-05T01:09:32.435Z,29.80
2024-03-05T01:19:33.068Z,28.40
2024-03-05T01:29:33.591Z,27.10
2024-03-05T01:39:34.201Z,30.80
2024-03-05T01:49:34.810Z,29.50
2024-03-05T01:59:35.338Z,29.60
2024-03-05T02:09:36.052Z,28.20
2024-03-05T02:19:36.711Z,28.60
2024-03-05T02:29:37.229Z,31.90
2024-03-05T02:39:37.790Z,30.50
2024-03-05T02:49:38.500Z,30.50
2024-03-05T02:59:39.050Z,32.40
2024-03-05T03:09:39.576Z,29.60
2024-03-05T03:19:40.178Z,31.80
2024-03-05T03:29:40.685Z,32.50
2024-03-05T03:39:41.251Z,31.20
2024-03-05T03:49:41.823Z,32.10
2024-03-05T03:59:42.357Z,32.80
2024-03-05T04:09:49.885Z,34.60
2024-03-05T04:19:43.455Z,28.30
2024-03-05T04:29:43.950Z,29.10
2024-03-05T04:39:45.457Z,27.30
2024-03-05T04:49:45.019Z,29.50
2024-03-05T04:59:45.611Z,28.90
2024-03-05T05:09:46.154Z,27.40
2024-03-05T05:19:46.760Z,32.10
2024-03-05T05:29:48.740Z,32.30
2024-03-05T05:39:47.748Z,32.70
2024-03-05T05:49:48.276Z,29.90
2024-03-05T05:59:48.772Z,29.10
2024-03-05T06:09:49.255Z,28.00
2024-03-05T06:19:49.846Z,29.10
2024-03-05T06:29:50.333Z,32.50
2024-03-05T06:39:50.835Z,28.70
2024-03-05T06:49:51.333Z,33.30
2024-03-05T06:59:51.859Z,33.80
2024-03-05T07:09:52.344Z,28.50
2024-03-05T07:19:52.921Z,30.90
2024-03-05T07:29:53.414Z,31.60
2024-03-05T07:39:54.076Z,28.30
2024-03-05T07:49:54.552Z,31.20
2024-03-05T07:59:55.092Z,32.50
2024-03-05T08:09:55.521Z,29.50
2024-03-05T08:19:56.041Z,31.30
2024-03-05T08:29:56.529Z,30.50
2024-03-05T08:39:57.031Z,27.50
2024-03-05T08:49:57.602Z,28.50
2024-03-05T08:59:58.170Z,30.00
2024-03-05T09:09:58.615Z,26.50
2024-03-05T09:19:59.277Z,28.70
2024-03-05T09:29:59.802Z,23.90
2024-03-05T09:40:00.342Z,25.70
2024-03-05T09:50:00.888Z,26.00
2024-03-05T10:00:01.407Z,26.50
2024-03-05T10:10:08.919Z,28.60
2024-03-05T10:20:02.944Z,28.60
2024-03-05T10:30:03.309Z,22.00
2024-03-05T10:40:03.900Z,19.10
2024-03-05T10:50:04.550Z,20.20
2024-03-05T11:00:05.167Z,18.70
2024-03-05T11:10:05.760Z,19.80
2024-03-05T11:20:06.499Z,19.40
2024-03-05T11:30:07.034Z,16.70
2024-03-05T11:40:09.501Z,16.60
2024-03-05T11:50:08.343Z,18.80
2024-03-05T12:00:08.949Z,20.10
2024-03-05T12:10:09.571Z,18.50
2024-03-05T12:20:10.756Z,20.40
2024-03-05T12:30:10.688Z,14.50
2024-03-05T12:40:11.207Z,17.90
2024-03-05T12:50:11.774Z,18.60
2024-03-05T13:00:12.567Z,18.10
2024-03-05T13:10:13.178Z,22.00
2024-03-05T13:20:13.927Z,15.30
2024-03-05T13:30:15.956Z,14.90
2024-03-05T13:40:15.648Z,14.20
2024-03-05T13:50:16.103Z,16.20
2024-03-05T14:00:16.516Z,15.50
2024-03-05T14:10:17.322Z,14.70
2024-03-05T14:20:17.554Z,17.20
2024-03-05T14:30:18.217Z,19.60
2024-03-05T14:40:18.876Z,16.40
2024-03-05T14:50:19.537Z,17.80
2024-03-05T15:00:20.425Z,18.30
2024-03-05T15:10:21.049Z,18.10
2024-03-05T15:20:21.680Z,19.70
2024-03-05T15:30:22.170Z,20.20
2024-03-05T15:40:23.096Z,19.30
2024-03-05T15:50:23.076Z,16.30
2024-03-05T16:00:23.685Z,16.10
2024-03-05T16:10:24.758Z,18.60
2024-03-05T16:20:25.156Z,21.20
2024-03-05T16:30:25.766Z,22.70
2024-03-05T16:40:26.494Z,25.00
2024-03-05T16:50:28.336Z,24.60
2024-03-05T17:00:27.603Z,22.80
2024-03-05T17:10:28.205Z,23.80
2024-03-05T17:20:28.700Z,24.00
2024-03-05T17:30:29.328Z,23.80
2024-03-05T17:40:29.959Z,23.10
2024-03-05T17:50:30.616Z,23.20
2024-03-05T18:00:31.641Z,25.50
2024-03-05T18:10:31.877Z,25.70
2024-03-05T18:20:32.580Z,25.80
2024-03-05T18:30:33.396Z,34.00
2024-03-05T18:40:34.499Z,30.20
2024-03-05T18:50:41.888Z,32.70
2024-03-05T19:00:35.130Z,30.70
2024-03-05T19:10:36.085Z,33.80
2024-03-05T19:20:36.965Z,32.30
2024-03-05T19:30:37.532Z,37.00
2024-03-05T19:40:38.247Z,34.20
2024-03-05T19:50:39.309Z,32.20
2024-03-05T20:00:39.584Z,44.90
2024-03-05T20:10:40.208Z,32.20
2024-03-05T20:20:41.059Z,31.70
2024-03-05T20:30:41.900Z,40.00
2024-03-05T20:40:42.458Z,37.00
2024-03-05T20:50:43.099Z,35.90
2024-03-05T21:00:43.844Z,36.90
2024-03-05T21:10:44.742Z,35.60
2024-03-05T21:20:45.215Z,36.80
2024-03-05T21:30:45.497Z,37.40
2024-03-05T21:40:46.157Z,35.70
2024-03-05T21:50:46.868Z,39.30
2024-03-05T22:00:47.521Z,30.30
2024-03-05T22:10:48.558Z,29.00
2024-03-05T22:20:49.045Z,32.00
2024-03-05T22:30:49.247Z,29.60
2024-03-05T22:40:49.930Z,27.60
2024-03-05T22:50:50.730Z,24.30
2024-03-05T23:00:58.358Z,25.60
2024-03-05T23:10:52.130Z,23.30
2024-03-05T23:20:52.723Z,23.60
2024-03-05T23:30:53.473Z,27.80
2024-03-05T23:40:55.970Z,29.30
2024-03-05T23:50:54.938Z,29.10
